KPDK/PDK METAR and TAF weather

Enter ICAO airport designator
Station Type Date Time Source
KPDK METAR 2019/02/18 04:00 UTC NOAA

KPDK 180400Z AUTO 02005KT 6SM BR FEW005 BKN016 OVC021 06/06 A2993 RMK AO2 RAE0354 P0000 T00610056


Station Type Date Time Source
KPDK Decoded METAR 2019/02/18 04:00 UTC NOAA

ATLANTA DE KALB-PEACHTREE, GA, United States (KPDK) 33-53N 084-18W 302M
Feb 17, 2019 - 11:00 PM EST / 2019.02.18 0400 UTC
Wind: from the NNE (020 degrees) at 6 MPH (5 KT):0
Visibility: 6 mile(s):0
Sky conditions: overcast
Weather: mist
Precipitation last hour: A trace
Temperature: 43.0 F (6.1 C)
Dew Point: 42.1 F (5.6 C)
Relative Humidity: 96%
Pressure (altimeter): 29.93 in. Hg (1013 hPa)
ob: KPDK 180400Z AUTO 02005KT 6SM BR FEW005 BKN016 OVC021 06/06 A2993 RMK AO2 RAE0354 P0000 T00610056
cycle: 4

Station Type Date Time Source
KPDK TAF 2019/02/18 02:42 UTC NOAA

TAF
AMD KPDK 180141Z 1802/1824 12009KT 1/4SM -DZ FG OVC002
FM180300 32011KT P6SM -RA BKN010
TEMPO 1803/1804 VRB15G25KT 2SM SHRA BR OVC003
FM181100 32013G20KT P6SM SCT015 BKN050
FM181500 32014G22KT P6SM SCT040
FM181800 33012G20KT P6SM SCT150


Example: see airport list